Time;durP1;ratioP1;P1;durP2;ratioP2;P2;SDS_P1;SDS_P2;PMS_P1;PMS_P2;Temp;Humidity;BMP_temperature;BMP_pressure;BME280_temperature;BME280_humidity;BME280_pressure;Samples;Min_cycle;Max_cycle;Signal;HPM_P1;HPM_P2
2022/06/19 00:03:48;;;;;;;;;;;;;;;25.19;43.43;95502.66;10468600;28;1973;-54
2022/06/19 00:08:49;;;;;;;;;;;;;;;25.19;43.47;95491.25;10441777;28;1694;-57
2022/06/19 00:13:49;;;;;;;;;;;;;;;25.18;43.50;95485.19;10475141;28;1849;-55
2022/06/19 00:18:50;;;;;;;;;;;;;;;25.18;43.42;95466.63;10457498;28;1794;-57
2022/06/19 00:23:50;;;;;;;;;;;;;;;25.18;43.42;95458.66;10472978;28;1902;-57
2022/06/19 00:28:51;;;;;;;;;;;;;;;25.19;43.56;95449.59;10475555;28;1919;-57
2022/06/19 00:33:51;;;;;;;;;;;;;;;25.20;43.75;95431.81;10441135;28;2109;-54
2022/06/19 00:38:51;;;;;;;;;;;;;;;25.19;43.53;95431.03;10476581;28;1880;-57
2022/06/19 00:43:55;;;;;;;;;;;;;;;25.19;43.69;95423.06;10470679;28;1967;-57
2022/06/19 00:48:56;;;;;;;;;;;;;;;25.20;43.48;95398.13;10457831;28;2126;-56
2022/06/19 00:53:57;;;;;;;;;;;;;;;25.20;43.25;95390.16;10453803;28;2054;-56
2022/06/19 00:58:57;;;;;;;;;;;;;;;25.21;43.35;95372.34;10453627;28;2205;-58
2022/06/19 01:04:17;;;;;;;;;;;;;;;25.19;43.35;95375.34;10472695;28;2340;-58
2022/06/19 01:09:17;;;;;;;;;;;;;;;25.19;43.02;95383.28;10476287;28;1880;-58
2022/06/19 01:14:19;;;;;;;;;;;;;;;25.17;43.37;95390.78;10463574;28;1928;-56
2022/06/19 01:19:25;;;;;;;;;;;;;;;25.17;42.89;95388.13;10484668;28;1908;-56
2022/06/19 01:24:25;;;;;;;;;;;;;;;25.15;42.64;95392.19;10478344;28;2019;-58
2022/06/19 01:29:32;;;;;;;;;;;;;;;25.10;42.66;95390.44;10462035;28;2009;-59
2022/06/19 01:34:53;;;;;;;;;;;;;;;25.14;42.70;95369.41;10478316;28;2084;-58
2022/06/19 01:39:55;;;;;;;;;;;;;;;25.14;42.41;95364.09;10478922;28;1998;-57
2022/06/19 01:44:57;;;;;;;;;;;;;;;25.15;42.47;95339.13;10479377;28;1900;-59
2022/06/19 01:49:58;;;;;;;;;;;;;;;25.16;42.89;95325.56;10479674;28;1977;-58
2022/06/19 01:55:02;;;;;;;;;;;;;;;25.14;42.81;95309.19;10488643;28;1973;-56
2022/06/19 02:00:03;;;;;;;;;;;;;;;25.15;42.91;95309.94;10471969;28;1970;-61
2022/06/19 02:05:04;;;;;;;;;;;;;;;25.17;42.83;95308.56;10457264;28;1979;-57
2022/06/19 02:10:04;;;;;;;;;;;;;;;25.17;43.06;95303.25;10456812;28;1983;-60
2022/06/19 02:15:06;;;;;;;;;;;;;;;25.19;43.06;95302.94;10495211;28;1846;-59
2022/06/19 02:20:06;;;;;;;;;;;;;;;25.19;43.00;95290.44;10462195;28;1777;-58
2022/06/19 02:25:07;;;;;;;;;;;;;;;25.19;42.94;95290.44;10460722;28;1976;-54
2022/06/19 02:30:08;;;;;;;;;;;;;;;25.20;42.80;95284.06;10490306;28;1940;-55
2022/06/19 02:35:14;;;;;;;;;;;;;;;25.21;42.85;95280.31;10473109;28;1931;-56
2022/06/19 02:40:33;;;;;;;;;;;;;;;25.21;42.90;95271.56;10453359;28;2155;-59
2022/06/19 02:45:33;;;;;;;;;;;;;;;25.22;42.85;95260.66;10478618;28;1975;-59
2022/06/19 02:50:34;;;;;;;;;;;;;;;25.23;42.91;95264.06;10479028;28;1873;-59
2022/06/19 02:55:35;;;;;;;;;;;;;;;25.23;43.06;95261.41;10474363;28;2065;-57
2022/06/19 03:00:35;;;;;;;;;;;;;;;25.22;43.10;95255.34;10460640;28;1885;-58
2022/06/19 03:05:35;;;;;;;;;;;;;;;25.23;42.74;95266.72;10458140;28;2070;-58
2022/06/19 03:10:36;;;;;;;;;;;;;;;25.23;43.07;95248.94;10459548;28;1924;-56
2022/06/19 03:15:36;;;;;;;;;;;;;;;25.23;43.01;95262.19;10457427;28;1995;-56
2022/06/19 03:20:37;;;;;;;;;;;;;;;25.23;42.94;95272.81;10487070;28;1975;-58
2022/06/19 03:25:37;;;;;;;;;;;;;;;25.25;42.95;95275.16;10460487;28;2324;-56
2022/06/19 03:30:37;;;;;;;;;;;;;;;25.24;42.97;95271.72;10455632;28;2055;-57
2022/06/19 03:35:38;;;;;;;;;;;;;;;25.25;42.95;95267.19;10490909;28;2226;-58
2022/06/19 03:40:38;;;;;;;;;;;;;;;25.24;43.11;95266.44;10455680;28;2189;-54
2022/06/19 03:45:38;;;;;;;;;;;;;;;25.24;43.11;95266.44;10472110;28;1994;-59
2022/06/19 03:50:39;;;;;;;;;;;;;;;25.25;42.95;95264.53;10457161;28;2315;-56
2022/06/19 03:55:39;;;;;;;;;;;;;;;25.25;42.89;95265.31;10455029;28;1939;-59
2022/06/19 04:00:40;;;;;;;;;;;;;;;25.25;42.85;95261.88;10454956;28;1975;-58
2022/06/19 04:05:40;;;;;;;;;;;;;;;25.25;42.95;95262.66;10475357;28;2316;-59
2022/06/19 04:10:42;;;;;;;;;;;;;;;25.25;42.86;95256.56;10472945;28;1908;-59
2022/06/19 04:15:42;;;;;;;;;;;;;;;25.25;43.02;95253.91;10478639;28;1917;-60
2022/06/19 04:20:42;;;;;;;;;;;;;;;25.25;43.15;95254.72;10486040;28;2056;-56
2022/06/19 04:25:43;;;;;;;;;;;;;;;25.25;42.72;95246.75;10483624;28;2023;-53
2022/06/19 04:30:46;;;;;;;;;;;;;;;25.26;42.67;95258.94;10473144;28;1960;-59
2022/06/19 04:35:47;;;;;;;;;;;;;;;25.25;42.82;95262.66;10473982;28;1979;-54
2022/06/19 04:40:47;;;;;;;;;;;;;;;25.24;42.73;95266.44;10446661;28;2015;-56
2022/06/19 04:45:48;;;;;;;;;;;;;;;25.26;42.72;95274.06;10492710;28;2089;-59
2022/06/19 04:50:48;;;;;;;;;;;;;;;25.26;42.51;95274.84;10474427;28;1916;-59
2022/06/19 04:55:48;;;;;;;;;;;;;;;25.25;42.56;95275.94;10492311;28;2079;-59
2022/06/19 05:00:49;;;;;;;;;;;;;;;25.26;42.56;95276.72;10479297;28;1911;-55
2022/06/19 05:05:51;;;;;;;;;;;;;;;25.26;42.54;95280.16;10491320;28;1998;-59
2022/06/19 05:10:51;;;;;;;;;;;;;;;25.26;42.89;95274.84;10478267;28;2113;-56
2022/06/19 05:16:00;;;;;;;;;;;;;;;25.28;42.88;95282.50;10485616;28;1980;-55
2022/06/19 05:21:04;;;;;;;;;;;;;;;25.27;42.76;95275.59;10479578;28;1919;-57
2022/06/19 05:26:07;;;;;;;;;;;;;;;25.27;42.76;95272.97;10483886;28;2026;-58
2022/06/19 05:31:07;;;;;;;;;;;;;;;25.28;42.70;95271.88;10482873;28;1994;-56
2022/06/19 05:36:08;;;;;;;;;;;;;;;25.29;42.66;95268.13;10485904;28;1877;-58
2022/06/19 05:41:08;;;;;;;;;;;;;;;25.28;42.83;95263.91;10459496;28;1982;-55
2022/06/19 05:46:14;;;;;;;;;;;;;;;25.29;42.57;95268.91;10493895;28;1964;-58
2022/06/19 05:51:15;;;;;;;;;;;;;;;25.26;42.53;95264.25;10463147;28;2245;-57
2022/06/19 05:56:15;;;;;;;;;;;;;;;25.28;42.77;95262.06;10461088;28;2566;-58
2022/06/19 06:01:16;;;;;;;;;;;;;;;25.28;42.49;95264.72;10461976;28;1934;-52
2022/06/19 06:06:17;;;;;;;;;;;;;;;25.30;42.46;95264.38;10480584;28;2041;-57
2022/06/19 06:11:18;;;;;;;;;;;;;;;25.29;42.67;95252.97;10478195;28;2161;-58
2022/06/19 06:16:19;;;;;;;;;;;;;;;25.30;42.72;95264.38;10478114;28;1900;-59
2022/06/19 06:21:20;;;;;;;;;;;;;;;25.30;42.69;95267.81;10462073;28;2086;-56
2022/06/19 06:26:24;;;;;;;;;;;;;;;25.30;42.53;95269.69;10474375;28;1914;-59
2022/06/19 06:31:24;;;;;;;;;;;;;;;25.31;42.56;95277.31;10480554;28;1912;-58
2022/06/19 06:36:25;;;;;;;;;;;;;;;25.31;42.72;95277.31;10477553;28;1916;-57
2022/06/19 06:41:26;;;;;;;;;;;;;;;25.32;42.70;95284.19;10459963;28;1935;-59
2022/06/19 06:46:27;;;;;;;;;;;;;;;25.32;42.68;95289.50;10462752;28;2077;-58
2022/06/19 06:51:28;;;;;;;;;;;;;;;25.33;42.88;95291.06;10461663;28;1936;-59
2022/06/19 06:56:32;;;;;;;;;;;;;;;25.34;43.00;95281.22;10451929;28;2011;-57
2022/06/19 07:01:32;;;;;;;;;;;;;;;25.22;41.10;95276.56;10470386;28;1938;-58
2022/06/19 07:06:33;;;;;;;;;;;;;;;25.17;40.75;95270.63;10480174;28;2002;-55
2022/06/19 07:11:36;;;;;;;;;;;;;;;25.15;40.85;95267.50;10475482;28;2281;-59
2022/06/19 07:16:38;;;;;;;;;;;;;;;25.13;40.98;95272.34;10458592;28;1910;-61
2022/06/19 07:21:38;;;;;;;;;;;;;;;25.12;41.02;95268.94;10460630;28;1940;-58
2022/06/19 07:26:38;;;;;;;;;;;;;;;25.14;41.51;95269.41;10459109;28;1902;-57
2022/06/19 07:31:39;;;;;;;;;;;;;;;25.15;41.49;95272.81;10456372;28;2071;-57
2022/06/19 07:36:39;;;;;;;;;;;;;;;25.18;42.05;95267.69;10482735;28;2231;-59
2022/06/19 07:41:40;;;;;;;;;;;;;;;25.20;42.06;95268.16;10468438;28;1858;-55
2022/06/19 07:50:09;;;;;;;;;;;;;;;25.22;42.37;95267.84;10473621;28;2034;-59
2022/06/19 07:52:00;;;;;;;;;;;;;;;25.23;42.11;95274.69;10474802;28;1936;-59
2022/06/19 07:57:01;;;;;;;;;;;;;;;25.23;42.15;95267.50;10474413;28;1791;-55
2022/06/19 08:02:02;;;;;;;;;;;;;;;25.23;42.28;95278.13;10492204;28;1930;-60
2022/06/19 08:07:02;;;;;;;;;;;;;;;25.24;42.29;95273.59;10484330;28;1910;-58
2022/06/19 08:12:03;;;;;;;;;;;;;;;25.24;42.45;95276.25;10482818;28;1816;-60
2022/06/19 08:17:04;;;;;;;;;;;;;;;25.22;42.43;95279.22;10460342;28;1825;-61
2022/06/19 08:22:04;;;;;;;;;;;;;;;25.26;42.27;95279.38;10465138;28;1590;-58
2022/06/19 08:27:05;;;;;;;;;;;;;;;25.27;42.53;95281.69;10473366;28;2189;-55
2022/06/19 08:32:06;;;;;;;;;;;;;;;25.29;42.60;95279.50;10453066;28;2186;-59
2022/06/19 08:37:06;;;;;;;;;;;;;;;25.30;42.85;95283.75;10461593;28;2221;-60
2022/06/19 08:42:07;;;;;;;;;;;;;;;25.31;42.69;95287.94;10467719;28;2094;-58
2022/06/19 08:47:27;;;;;;;;;;;;;;;25.31;42.87;95279.19;10463736;28;2184;-58
2022/06/19 08:52:30;;;;;;;;;;;;;;;25.30;42.56;95275.78;10463383;28;1830;-59
2022/06/19 08:57:33;;;;;;;;;;;;;;;25.31;42.72;95279.97;10467727;28;1831;-59
2022/06/19 09:02:37;;;;;;;;;;;;;;;25.33;42.67;95274.34;10473132;28;1773;-55
2022/06/19 09:07:58;;;;;;;;;;;;;;;25.32;43.07;95278.91;10451511;28;1902;-61
2022/06/19 09:13:17;;;;;;;;;;;;;;;25.32;42.74;95278.91;10462916;28;1971;-60
2022/06/19 09:18:17;;;;;;;;;;;;;;;25.30;42.75;95275.78;10477277;28;2141;-61
2022/06/19 09:23:18;;;;;;;;;;;;;;;25.30;42.73;95275.78;10450860;28;2150;-61
2022/06/19 09:28:20;;;;;;;;;;;;;;;25.31;42.63;95276.53;10479431;28;1906;-58
2022/06/19 09:33:29;;;;;;;;;;;;;;;25.33;42.79;95277.78;10460704;28;1896;-59
2022/06/19 09:38:44;;;;;;;;;;;;;;;25.33;42.77;95269.84;10458757;28;1822;-58
2022/06/19 09:43:47;;;;;;;;;;;;;;;25.34;42.65;95260.00;10458848;28;2868;-59
2022/06/19 09:48:53;;;;;;;;;;;;;;;25.35;42.66;95265.00;10454315;28;1839;-61
2022/06/19 09:53:55;;;;;;;;;;;;;;;25.36;42.57;95257.81;10478852;28;1781;-56
2022/06/19 09:59:14;;;;;;;;;;;;;;;25.37;42.49;95246.88;10444392;28;1803;-61
2022/06/19 10:04:16;;;;;;;;;;;;;;;25.37;42.66;95251.44;10478981;28;1905;-60
2022/06/19 10:09:20;;;;;;;;;;;;;;;25.37;42.77;95244.22;10454089;28;1802;-61
2022/06/19 10:14:28;;;;;;;;;;;;;;;25.39;42.63;95235.97;10499873;28;1821;-59
2022/06/19 10:19:40;;;;;;;;;;;;;;;25.40;42.96;95227.69;10478940;28;1901;-57
2022/06/19 10:24:41;;;;;;;;;;;;;;;25.42;42.82;95230.03;10485253;28;1979;-59
2022/06/19 10:29:44;;;;;;;;;;;;;;;25.40;42.76;95226.91;10469374;28;1866;-59
2022/06/19 10:34:50;;;;;;;;;;;;;;;25.41;42.96;95218.66;10479928;28;1776;-59
2022/06/19 10:40:09;;;;;;;;;;;;;;;25.41;42.90;95223.94;10459624;28;2143;-60
2022/06/19 10:45:09;;;;;;;;;;;;;;;25.42;43.04;95224.75;10457373;28;1906;-60
2022/06/19 10:50:19;;;;;;;;;;;;;;;25.42;42.88;95222.88;10454734;28;1773;-55
2022/06/19 10:55:19;;;;;;;;;;;;;;;25.43;43.33;95221.00;10461684;28;1818;-59
2022/06/19 11:00:19;;;;;;;;;;;;;;;25.45;43.28;95211.59;10454566;28;2110;-58
2022/06/19 11:05:21;;;;;;;;;;;;;;;25.44;43.22;95199.44;10475652;28;1909;-57
2022/06/19 11:10:40;;;;;;;;;;;;;;;25.46;43.05;95199.13;10484871;28;1764;-57
2022/06/19 11:15:59;;;;;;;;;;;;;;;25.45;42.85;95200.25;10488601;28;1840;-59
2022/06/19 11:21:00;;;;;;;;;;;;;;;25.47;42.98;95190.09;10459075;28;1837;-57
2022/06/19 11:26:28;;;;;;;;;;;;;;;25.46;43.13;95191.94;10468247;28;1910;-58
2022/06/19 11:31:29;;;;;;;;;;;;;;;25.47;42.88;95185.53;10450363;28;1841;-60
2022/06/19 11:36:31;;;;;;;;;;;;;;;25.50;43.18;95190.22;10472722;28;1844;-58
2022/06/19 11:41:33;;;;;;;;;;;;;;;25.50;43.39;95190.22;10465063;28;1978;-57
2022/06/19 11:46:42;;;;;;;;;;;;;;;25.51;42.96;95183.03;10472918;28;1973;-59
2022/06/19 11:51:43;;;;;;;;;;;;;;;25.52;43.26;95179.28;10471085;28;1737;-57
2022/06/19 11:56:44;;;;;;;;;;;;;;;25.52;43.10;95176.63;10459139;28;1796;-60
2022/06/19 12:01:44;;;;;;;;;;;;;;;25.52;43.00;95177.41;10452709;28;1829;-58
2022/06/19 12:06:48;;;;;;;;;;;;;;;25.53;43.00;95173.66;10455958;28;1967;-57
2022/06/19 12:11:54;;;;;;;;;;;;;;;25.55;43.12;95160.06;10453147;28;1865;-55
2022/06/19 12:17:16;;;;;;;;;;;;;;;25.55;43.20;95152.91;10442823;28;1805;-59
2022/06/19 12:22:17;;;;;;;;;;;;;;;25.55;43.02;95146.81;10458875;28;1900;-59
2022/06/19 12:27:18;;;;;;;;;;;;;;;25.56;43.25;95145.69;10439168;28;1981;-57
2022/06/19 12:32:27;;;;;;;;;;;;;;;25.55;43.26;95139.63;10438497;28;1904;-58
2022/06/19 12:37:29;;;;;;;;;;;;;;;25.56;43.16;95138.53;10436779;28;1890;-54
2022/06/19 12:42:33;;;;;;;;;;;;;;;25.57;42.98;95137.44;10471478;28;2363;-60
2022/06/19 12:47:36;;;;;;;;;;;;;;;25.57;43.06;95129.47;10454303;28;1906;-59
2022/06/19 12:52:55;;;;;;;;;;;;;;;25.58;43.15;95123.06;10452600;28;1789;-60
2022/06/19 12:58:06;;;;;;;;;;;;;;;25.60;43.06;95120.06;10451286;28;1847;-58
2022/06/19 13:03:09;;;;;;;;;;;;;;;25.60;43.18;95115.56;10453162;28;1811;-59
2022/06/19 13:08:09;;;;;;;;;;;;;;;25.61;43.43;95116.34;10466220;28;1977;-58
2022/06/19 13:13:12;;;;;;;;;;;;;;;25.61;43.30;95116.34;10478267;28;1782;-56
2022/06/19 13:18:33;;;;;;;;;;;;;;;25.61;43.42;95101.19;10479157;28;1825;-57
2022/06/19 13:23:52;;;;;;;;;;;;;;;25.61;43.40;95103.06;10463755;28;1852;-58
2022/06/19 13:28:55;;;;;;;;;;;;;;;25.63;43.25;95104.31;10462214;28;1819;-56
2022/06/19 13:33:55;;;;;;;;;;;;;;;25.64;43.35;95095.22;10448091;28;1836;-59
2022/06/19 13:38:55;;;;;;;;;;;;;;;25.65;43.44;95082.75;10476060;28;1847;-58
2022/06/19 13:44:02;;;;;;;;;;;;;;;25.65;43.22;95082.75;10481676;28;1965;-56
2022/06/19 13:49:02;;;;;;;;;;;;;;;25.65;43.23;95077.44;10476337;28;1819;-58
2022/06/19 13:54:09;;;;;;;;;;;;;;;25.66;43.54;95065.69;10473577;28;1831;-58
2022/06/19 13:59:19;;;;;;;;;;;;;;;25.66;43.46;95061.19;10479300;28;1796;-58
2022/06/19 14:09:47;;;;;;;;;;;;;;;25.66;43.24;95047.91;10477654;28;1847;-56
2022/06/19 14:14:47;;;;;;;;;;;;;;;25.68;43.30;95050.22;10459770;28;1892;-55
2022/06/19 14:19:49;;;;;;;;;;;;;;;25.69;43.52;95041.97;10439170;28;1788;-58
2022/06/19 14:24:55;;;;;;;;;;;;;;;25.69;43.66;95041.97;10455285;28;1905;-58
2022/06/19 14:29:56;;;;;;;;;;;;;;;25.70;44.12;95040.84;10456771;28;1804;-59
2022/06/19 14:35:03;;;;;;;;;;;;;;;25.72;44.01;95043.19;10458811;28;1764;-60
2022/06/19 14:40:20;;;;;;;;;;;;;;;25.74;43.93;95041.75;10482323;28;1843;-58
2022/06/19 14:45:22;;;;;;;;;;;;;;;25.74;44.00;95040.97;10467280;28;1923;-59
2022/06/19 14:50:35;;;;;;;;;;;;;;;25.74;43.76;95036.44;10494072;28;1819;-57
2022/06/19 14:55:38;;;;;;;;;;;;;;;25.75;44.05;95037.25;10497334;28;1799;-56
2022/06/19 15:00:40;;;;;;;;;;;;;;;25.76;44.31;95023.63;10484402;28;1932;-58
2022/06/19 15:05:57;;;;;;;;;;;;;;;25.78;44.10;95028.63;10480870;28;1984;-56
2022/06/19 15:11:04;;;;;;;;;;;;;;;25.78;44.26;95028.63;10478158;28;1661;-58
2022/06/19 15:16:12;;;;;;;;;;;;;;;25.79;44.26;95035.50;10457441;28;1804;-57
2022/06/19 15:21:14;;;;;;;;;;;;;;;25.79;44.20;95030.97;10466184;28;1796;-57
2022/06/19 15:26:14;;;;;;;;;;;;;;;25.79;44.90;95032.84;10462414;28;1906;-56
2022/06/19 15:31:17;;;;;;;;;;;;;;;25.86;45.32;95024.34;10486557;28;1821;-57
2022/06/19 15:36:18;;;;;;;;;;;;;;;25.87;45.35;95024.03;10481810;28;1971;-59
2022/06/19 15:41:41;;;;;;;;;;;;;;;25.88;45.66;95014.97;10487148;28;1815;-57
2022/06/19 15:47:01;;;;;;;;;;;;;;;25.91;45.74;95014.31;10487928;28;1974;-57
2022/06/19 15:52:02;;;;;;;;;;;;;;;25.93;45.93;95011.31;10486558;28;1819;-55
2022/06/19 15:57:02;;;;;;;;;;;;;;;25.94;46.18;95012.88;10482231;28;1900;-60
2022/06/19 16:02:12;;;;;;;;;;;;;;;25.95;46.30;95011.78;10471690;28;1816;-56
2022/06/19 16:07:21;;;;;;;;;;;;;;;25.96;46.41;95014.13;10482291;28;1983;-61
2022/06/19 16:12:25;;;;;;;;;;;;;;;25.98;46.51;95013.78;10479938;28;1825;-58
2022/06/19 16:17:25;;;;;;;;;;;;;;;25.98;46.29;95013.78;10477232;28;1934;-57
2022/06/19 16:22:27;;;;;;;;;;;;;;;26.00;46.39;95017.69;10498406;28;1848;-57
2022/06/19 16:27:28;;;;;;;;;;;;;;;25.98;46.58;95011.91;10448796;28;1922;-55
2022/06/19 16:32:31;;;;;;;;;;;;;;;26.01;46.80;95005.19;10442981;28;1793;-58
2022/06/19 16:48:11;;;;;;;;;;;;;;;26.02;46.85;94999.53;10462476;28;1918;-59
2022/06/19 16:53:11;;;;;;;;;;;;;;;26.00;46.88;94999.09;10478697;28;1843;-56
2022/06/19 16:58:12;;;;;;;;;;;;;;;26.03;46.61;95005.63;10443631;28;1819;-58
2022/06/19 17:03:25;;;;;;;;;;;;;;;26.03;46.72;95000.31;10494046;28;1828;-57
2022/06/19 17:08:41;;;;;;;;;;;;;;;26.03;46.72;95002.97;10466070;28;1981;-59
2022/06/19 17:13:42;;;;;;;;;;;;;;;26.03;46.97;95005.63;10491790;28;1707;-58
2022/06/19 17:18:45;;;;;;;;;;;;;;;26.03;47.03;95002.97;10481632;28;1807;-58
2022/06/19 17:24:04;;;;;;;;;;;;;;;26.04;47.19;95001.88;10464166;28;1820;-59
2022/06/19 17:29:04;;;;;;;;;;;;;;;26.05;47.19;95006.09;10465284;28;1906;-60
2022/06/19 17:34:16;;;;;;;;;;;;;;;26.05;47.20;95006.84;10460382;28;1776;-57
2022/06/19 17:39:20;;;;;;;;;;;;;;;26.05;47.38;95014.81;10461460;28;1841;-59
2022/06/19 17:44:22;;;;;;;;;;;;;;;26.06;47.44;95016.38;10460793;28;1949;-58
2022/06/19 17:49:39;;;;;;;;;;;;;;;26.07;47.67;95017.94;10494204;28;1800;-58
2022/06/19 17:54:39;;;;;;;;;;;;;;;26.08;47.71;95021.38;10464083;28;1806;-59
2022/06/19 17:59:40;;;;;;;;;;;;;;;26.09;48.07;95009.69;10494398;28;1859;-60
2022/06/19 18:04:45;;;;;;;;;;;;;;;26.09;47.92;95022.94;10477183;28;1882;-59
2022/06/19 18:09:53;;;;;;;;;;;;;;;26.09;48.21;95015.75;10473865;28;2187;-57
2022/06/19 18:14:58;;;;;;;;;;;;;;;26.10;48.10;95027.16;10459533;28;1843;-59
2022/06/19 18:19:58;;;;;;;;;;;;;;;26.11;48.25;95028.72;10462279;28;1788;-60
2022/06/19 18:24:59;;;;;;;;;;;;;;;26.11;48.43;95021.50;10493478;28;2164;-60
2022/06/19 18:30:02;;;;;;;;;;;;;;;26.12;48.49;95020.41;10460622;28;1766;-57
2022/06/19 18:35:06;;;;;;;;;;;;;;;26.12;48.44;95024.94;10477336;28;1808;-59
2022/06/19 18:40:10;;;;;;;;;;;;;;;26.13;48.56;95021.94;10489063;28;1823;-56
2022/06/19 18:45:11;;;;;;;;;;;;;;;26.13;48.44;95026.50;10475565;28;1906;-59
2022/06/19 18:50:13;;;;;;;;;;;;;;;26.14;48.48;95033.38;10459725;28;1789;-58
2022/06/19 18:55:22;;;;;;;;;;;;;;;26.13;48.64;95027.25;10493611;28;1855;-59
2022/06/19 19:00:23;;;;;;;;;;;;;;;26.14;48.83;95028.06;10457416;28;1967;-59
2022/06/19 19:05:23;;;;;;;;;;;;;;;26.15;48.72;95019.00;10479337;28;1990;-58
2022/06/19 19:10:25;;;;;;;;;;;;;;;26.15;48.98;95021.66;10459709;28;1726;-59
2022/06/19 19:15:29;;;;;;;;;;;;;;;26.16;48.87;95020.53;10473117;28;1863;-59
2022/06/19 19:20:30;;;;;;;;;;;;;;;26.17;49.03;95027.41;10451813;28;2183;-57
2022/06/19 19:25:31;;;;;;;;;;;;;;;26.15;48.77;95027.72;10456414;28;1977;-58
2022/06/19 19:30:32;;;;;;;;;;;;;;;26.17;49.17;95038.03;10477378;28;1839;-58
2022/06/19 19:35:35;;;;;;;;;;;;;;;26.16;49.49;95042.56;10459810;28;1770;-58
2022/06/19 19:40:35;;;;;;;;;;;;;;;26.17;49.57;95040.69;10471105;28;1925;-55
2022/06/19 19:45:36;;;;;;;;;;;;;;;26.18;49.56;95045.69;10475944;28;1902;-60
2022/06/19 19:50:37;;;;;;;;;;;;;;;26.20;49.32;95046.13;10460060;28;1870;-58
2022/06/19 19:55:37;;;;;;;;;;;;;;;26.22;49.65;95056.41;10460892;28;1817;-58
2022/06/19 20:00:37;;;;;;;;;;;;;;;26.24;49.99;95059.53;10440288;28;1776;-57
2022/06/19 20:10:56;;;;;;;;;;;;;;;26.25;48.72;95055.78;10440965;28;2168;-58
2022/06/19 20:15:57;;;;;;;;;;;;;;;26.27;48.65;95064.19;10455728;28;1815;-61
2022/06/19 20:20:58;;;;;;;;;;;;;;;26.25;48.64;95061.88;10483898;28;1819;-59
2022/06/19 20:25:58;;;;;;;;;;;;;;;26.25;48.86;95064.53;10451730;28;1914;-57
2022/06/19 20:30:58;;;;;;;;;;;;;;;26.26;48.81;95062.63;10485782;28;1959;-58
2022/06/19 20:35:59;;;;;;;;;;;;;;;26.26;48.78;95067.94;10489471;28;1923;-59
2022/06/19 20:42:21;;;;;;;;;;;;;;;26.27;48.74;95061.53;10454969;28;1930;-59
2022/06/19 20:46:21;;;;;;;;;;;;;;;26.28;48.62;95071.06;10471382;28;1926;-62
2022/06/19 20:51:27;;;;;;;;;;;;;;;26.28;48.89;95060.44;10450799;28;1922;-61
2022/06/19 20:56:28;;;;;;;;;;;;;;;26.28;48.88;95063.88;10483539;28;1778;-59
2022/06/19 21:01:28;;;;;;;;;;;;;;;26.29;48.80;95062.78;10471117;28;1864;-59
2022/06/19 21:06:28;;;;;;;;;;;;;;;26.30;48.86;95066.97;10455393;28;1978;-60
2022/06/19 21:11:29;;;;;;;;;;;;;;;26.31;48.89;95065.09;10453682;28;1879;-58
2022/06/19 21:16:29;;;;;;;;;;;;;;;26.31;48.89;95071.19;10433815;28;1830;-58
2022/06/19 21:21:35;;;;;;;;;;;;;;;26.32;49.07;95069.28;10470125;28;2018;-60
2022/06/19 21:26:36;;;;;;;;;;;;;;;26.33;49.04;95065.56;10467651;28;1914;-58
2022/06/19 21:31:36;;;;;;;;;;;;;;;26.33;48.95;95069.00;10462392;28;1774;-59
2022/06/19 21:36:37;;;;;;;;;;;;;;;26.34;49.10;95061.78;10454476;28;1908;-59
2022/06/19 21:41:42;;;;;;;;;;;;;;;26.34;49.17;95057.25;10455682;28;1938;-59
2022/06/19 21:46:43;;;;;;;;;;;;;;;26.35;49.21;95058.03;10458038;28;1962;-55
2022/06/19 21:51:47;;;;;;;;;;;;;;;26.36;49.07;95048.94;10476888;28;1811;-58
2022/06/19 21:56:48;;;;;;;;;;;;;;;26.35;49.05;95044.75;10458438;28;1920;-59
2022/06/19 22:01:54;;;;;;;;;;;;;;;26.36;49.04;95046.28;10462715;28;1884;-56
2022/06/19 22:06:56;;;;;;;;;;;;;;;26.37;49.13;95047.84;10479645;28;1947;-58
2022/06/19 22:17:15;;;;;;;;;;;;;;;26.38;48.99;95052.06;10464010;28;1816;-57
2022/06/19 22:22:16;;;;;;;;;;;;;;;26.38;48.96;95038.75;10465804;28;2461;-55
2022/06/19 22:27:18;;;;;;;;;;;;;;;26.38;49.12;95033.44;10459794;28;1985;-57
2022/06/19 22:32:20;;;;;;;;;;;;;;;26.38;49.04;95028.91;10463620;28;1843;-59
2022/06/19 22:37:22;;;;;;;;;;;;;;;26.38;49.21;95028.13;10459512;28;1959;-57
2022/06/19 22:42:23;;;;;;;;;;;;;;;26.39;49.05;95032.34;10492224;28;1843;-59
2022/06/19 22:47:30;;;;;;;;;;;;;;;26.39;49.13;95029.69;10477516;28;1971;-58
2022/06/19 22:52:31;;;;;;;;;;;;;;;26.39;48.98;95030.47;10496968;28;1785;-59
2022/06/19 22:57:34;;;;;;;;;;;;;;;26.39;49.20;95019.84;10476553;28;1764;-59
2022/06/19 23:02:34;;;;;;;;;;;;;;;26.41;49.10;95025.63;10456979;28;1836;-58
2022/06/19 23:07:35;;;;;;;;;;;;;;;26.41;49.01;95024.84;10462873;28;1906;-57
2022/06/19 23:12:36;;;;;;;;;;;;;;;26.41;48.95;95014.19;10476688;28;1867;-56
2022/06/19 23:17:37;;;;;;;;;;;;;;;26.41;48.88;95007.00;10473455;28;1864;-61
2022/06/19 23:22:38;;;;;;;;;;;;;;;26.42;48.96;94997.16;10441958;28;1823;-59
2022/06/19 23:27:38;;;;;;;;;;;;;;;26.41;49.02;94985.75;10446023;28;1971;-59
2022/06/19 23:32:39;;;;;;;;;;;;;;;26.43;48.95;94974.78;10460250;28;1910;-59
2022/06/19 23:37:41;;;;;;;;;;;;;;;26.43;49.07;94972.13;10475908;28;1888;-57
2022/06/19 23:42:42;;;;;;;;;;;;;;;26.44;48.85;94973.69;10459169;28;1830;-58
2022/06/19 23:47:42;;;;;;;;;;;;;;;26.44;48.91;94965.72;10455947;28;2001;-59
2022/06/19 23:52:43;;;;;;;;;;;;;;;26.45;48.92;94969.91;10455875;28;1817;-58
2022/06/19 23:57:44;;;;;;;;;;;;;;;26.43;48.71;94975.56;10456667;28;1835;-60
